sensor_id;sensor_type;location;lat;lon;timestamp;P1;durP1;ratioP1;P2;durP2;ratioP2
38224;SDS011;24025;48.138;11.428;2023-04-03T08:50:02;2.80;;;1.98;;
38224;SDS011;24025;48.138;11.428;2023-04-03T08:55:39;4.00;;;2.10;;
38224;SDS011;24025;48.138;11.428;2023-04-03T09:00:57;3.22;;;2.40;;
38224;SDS011;24025;48.138;11.428;2023-04-03T09:03:33;5.80;;;2.05;;
38224;SDS011;24025;48.138;11.428;2023-04-03T09:06:20;3.33;;;1.75;;
38224;SDS011;24025;48.138;11.428;2023-04-03T09:17:15;4.88;;;2.28;;
38224;SDS011;24025;48.138;11.428;2023-04-03T09:19:57;3.78;;;2.00;;
38224;SDS011;24025;48.138;11.428;2023-04-03T09:22:41;3.80;;;1.90;;
38224;SDS011;24025;48.138;11.428;2023-04-03T09:25:24;6.22;;;1.98;;
38224;SDS011;24025;48.138;11.428;2023-04-03T09:28:02;2.25;;;1.98;;
38224;SDS011;24025;48.138;11.428;2023-04-03T09:30:41;3.88;;;1.88;;
38224;SDS011;24025;48.138;11.428;2023-04-03T09:33:15;3.60;;;1.83;;
38224;SDS011;24025;48.138;11.428;2023-04-03T09:35:48;6.22;;;1.67;;
38224;SDS011;24025;48.138;11.428;2023-04-03T09:38:21;4.30;;;1.80;;
38224;SDS011;24025;48.138;11.428;2023-04-03T09:41:21;2.67;;;1.70;;
38224;SDS011;24025;48.138;11.428;2023-04-03T09:43:55;4.35;;;1.75;;
38224;SDS011;24025;48.138;11.428;2023-04-03T09:46:31;4.35;;;2.17;;
38224;SDS011;24025;48.138;11.428;2023-04-03T09:49:04;3.85;;;2.13;;
38224;SDS011;24025;48.138;11.428;2023-04-03T09:51:40;2.10;;;1.58;;
38224;SDS011;24025;48.138;11.428;2023-04-03T09:54:31;3.30;;;2.10;;
38224;SDS011;24025;48.138;11.428;2023-04-03T09:57:10;5.03;;;2.08;;
38224;SDS011;24025;48.138;11.428;2023-04-03T10:00:10;4.20;;;2.10;;
38224;SDS011;24025;48.138;11.428;2023-04-03T10:02:57;4.15;;;1.63;;
38224;SDS011;24025;48.138;11.428;2023-04-03T10:10:47;5.97;;;1.57;;
38224;SDS011;24025;48.138;11.428;2023-04-03T10:13:35;5.45;;;1.80;;
38224;SDS011;24025;48.138;11.428;2023-04-03T10:16:23;3.50;;;1.63;;
38224;SDS011;24025;48.138;11.428;2023-04-03T10:21:58;3.10;;;1.50;;
38224;SDS011;24025;48.138;11.428;2023-04-03T10:24:43;3.33;;;1.83;;
38224;SDS011;24025;48.138;11.428;2023-04-03T10:30:30;3.60;;;1.88;;
38224;SDS011;24025;48.138;11.428;2023-04-03T10:39:16;2.63;;;1.40;;
38224;SDS011;24025;48.138;11.428;2023-04-03T10:45:08;3.97;;;1.88;;
38224;SDS011;24025;48.138;11.428;2023-04-03T10:50:58;2.90;;;1.45;;
38224;SDS011;24025;48.138;11.428;2023-04-03T10:56:44;3.35;;;1.80;;
38224;SDS011;24025;48.138;11.428;2023-04-03T10:59:43;4.25;;;1.60;;
38224;SDS011;24025;48.138;11.428;2023-04-03T11:05:17;3.00;;;1.67;;
38224;SDS011;24025;48.138;11.428;2023-04-03T11:07:53;2.70;;;1.55;;
38224;SDS011;24025;48.138;11.428;2023-04-03T11:10:36;2.90;;;1.00;;
38224;SDS011;24025;48.138;11.428;2023-04-03T11:13:14;2.78;;;1.30;;
38224;SDS011;24025;48.138;11.428;2023-04-03T11:16:00;3.40;;;1.08;;
38224;SDS011;24025;48.138;11.428;2023-04-03T11:21:21;4.07;;;1.40;;
38224;SDS011;24025;48.138;11.428;2023-04-03T11:23:59;2.42;;;1.40;;
38224;SDS011;24025;48.138;11.428;2023-04-03T11:26:35;3.15;;;1.27;;
38224;SDS011;24025;48.138;11.428;2023-04-03T11:29:12;2.60;;;1.17;;
38224;SDS011;24025;48.138;11.428;2023-04-03T11:35:09;2.92;;;1.70;;
38224;SDS011;24025;48.138;11.428;2023-04-03T11:37:50;3.70;;;1.45;;
38224;SDS011;24025;48.138;11.428;2023-04-03T11:40:25;2.65;;;1.10;;
38224;SDS011;24025;48.138;11.428;2023-04-03T11:53:47;5.10;;;1.55;;
38224;SDS011;24025;48.138;11.428;2023-04-03T12:01:56;3.03;;;1.25;;
38224;SDS011;24025;48.138;11.428;2023-04-03T12:04:29;1.38;;;1.00;;
38224;SDS011;24025;48.138;11.428;2023-04-03T12:07:16;7.78;;;1.13;;
38224;SDS011;24025;48.138;11.428;2023-04-03T12:17:55;2.00;;;0.77;;
38224;SDS011;24025;48.138;11.428;2023-04-03T12:23:58;1.55;;;0.90;;
38224;SDS011;24025;48.138;11.428;2023-04-03T12:32:55;1.60;;;0.80;;
38224;SDS011;24025;48.138;11.428;2023-04-03T12:36:04;0.88;;;0.60;;
38224;SDS011;24025;48.138;11.428;2023-04-03T12:39:03;1.30;;;0.70;;
38224;SDS011;24025;48.138;11.428;2023-04-03T12:41:51;1.50;;;0.60;;
38224;SDS011;24025;48.138;11.428;2023-04-03T12:47:19;3.03;;;0.52;;
38224;SDS011;24025;48.138;11.428;2023-04-03T12:49:55;1.88;;;0.75;;
38224;SDS011;24025;48.138;11.428;2023-04-03T12:55:16;2.22;;;0.82;;
38224;SDS011;24025;48.138;11.428;2023-04-03T12:57:49;3.72;;;0.82;;
38224;SDS011;24025;48.138;11.428;2023-04-03T13:03:25;3.53;;;0.90;;
38224;SDS011;24025;48.138;11.428;2023-04-03T13:06:02;1.67;;;0.80;;
38224;SDS011;24025;48.138;11.428;2023-04-03T13:08:35;1.58;;;1.00;;
38224;SDS011;24025;48.138;11.428;2023-04-03T13:11:10;2.33;;;1.27;;
38224;SDS011;24025;48.138;11.428;2023-04-03T13:13:53;4.45;;;0.90;;
38224;SDS011;24025;48.138;11.428;2023-04-03T13:16:28;1.65;;;0.80;;
38224;SDS011;24025;48.138;11.428;2023-04-03T13:19:03;2.72;;;1.00;;
38224;SDS011;24025;48.138;11.428;2023-04-03T13:21:35;1.95;;;0.93;;
38224;SDS011;24025;48.138;11.428;2023-04-03T13:24:06;1.60;;;0.95;;
38224;SDS011;24025;48.138;11.428;2023-04-03T13:26:45;3.40;;;0.90;;
38224;SDS011;24025;48.138;11.428;2023-04-03T13:29:41;1.52;;;0.70;;
38224;SDS011;24025;48.138;11.428;2023-04-03T13:32:17;4.65;;;0.85;;
38224;SDS011;24025;48.138;11.428;2023-04-03T13:34:52;1.65;;;0.80;;
38224;SDS011;24025;48.138;11.428;2023-04-03T13:37:28;2.28;;;1.00;;
38224;SDS011;24025;48.138;11.428;2023-04-03T13:42:39;3.97;;;0.80;;
38224;SDS011;24025;48.138;11.428;2023-04-03T13:45:24;1.75;;;0.80;;
38224;SDS011;24025;48.138;11.428;2023-04-03T13:50:56;1.27;;;0.73;;
38224;SDS011;24025;48.138;11.428;2023-04-03T13:53:32;2.88;;;0.85;;
38224;SDS011;24025;48.138;11.428;2023-04-03T13:56:13;3.28;;;0.90;;
38224;SDS011;24025;48.138;11.428;2023-04-03T13:58:54;1.05;;;0.63;;
38224;SDS011;24025;48.138;11.428;2023-04-03T14:01:40;1.20;;;0.70;;
38224;SDS011;24025;48.138;11.428;2023-04-03T14:04:18;3.38;;;0.75;;
38224;SDS011;24025;48.138;11.428;2023-04-03T14:06:54;1.80;;;1.02;;
38224;SDS011;24025;48.138;11.428;2023-04-03T14:12:00;0.95;;;0.70;;
38224;SDS011;24025;48.138;11.428;2023-04-03T14:14:38;1.65;;;0.75;;
38224;SDS011;24025;48.138;11.428;2023-04-03T14:17:18;2.25;;;0.93;;
38224;SDS011;24025;48.138;11.428;2023-04-03T14:19:56;3.10;;;0.90;;
38224;SDS011;24025;48.138;11.428;2023-04-03T14:22:30;1.42;;;0.85;;
38224;SDS011;24025;48.138;11.428;2023-04-03T14:25:03;1.73;;;1.00;;
38224;SDS011;24025;48.138;11.428;2023-04-03T14:27:37;1.70;;;0.70;;
38224;SDS011;24025;48.138;11.428;2023-04-03T14:30:15;3.22;;;1.13;;
38224;SDS011;24025;48.138;11.428;2023-04-03T14:32:54;1.23;;;0.70;;
38224;SDS011;24025;48.138;11.428;2023-04-03T14:35:27;2.28;;;0.93;;
38224;SDS011;24025;48.138;11.428;2023-04-03T14:37:59;2.10;;;0.93;;
38224;SDS011;24025;48.138;11.428;2023-04-03T14:40:31;1.85;;;0.77;;
38224;SDS011;24025;48.138;11.428;2023-04-03T14:43:02;3.65;;;0.73;;
38224;SDS011;24025;48.138;11.428;2023-04-03T14:45:36;2.13;;;1.00;;
38224;SDS011;24025;48.138;11.428;2023-04-03T14:48:09;3.08;;;0.80;;
38224;SDS011;24025;48.138;11.428;2023-04-03T14:50:50;1.52;;;0.82;;
38224;SDS011;24025;48.138;11.428;2023-04-03T14:53:35;2.25;;;0.85;;
38224;SDS011;24025;48.138;11.428;2023-04-03T14:56:19;1.77;;;0.85;;
38224;SDS011;24025;48.138;11.428;2023-04-03T14:58:58;1.88;;;0.68;;
38224;SDS011;24025;48.138;11.428;2023-04-03T15:01:34;1.02;;;0.60;;
38224;SDS011;24025;48.138;11.428;2023-04-03T15:04:12;1.33;;;0.60;;
38224;SDS011;24025;48.138;11.428;2023-04-03T15:06:51;3.45;;;0.80;;
38224;SDS011;24025;48.138;11.428;2023-04-03T15:09:25;1.23;;;0.75;;
38224;SDS011;24025;48.138;11.428;2023-04-03T15:12:00;0.98;;;0.70;;
38224;SDS011;24025;48.138;11.428;2023-04-03T15:14:31;3.13;;;0.85;;
38224;SDS011;24025;48.138;11.428;2023-04-03T15:17:16;1.52;;;0.60;;
38224;SDS011;24025;48.138;11.428;2023-04-03T15:19:51;1.65;;;0.70;;
38224;SDS011;24025;48.138;11.428;2023-04-03T15:22:22;2.70;;;0.70;;
38224;SDS011;24025;48.138;11.428;2023-04-03T15:24:54;0.60;;;0.60;;
38224;SDS011;24025;48.138;11.428;2023-04-03T15:27:28;1.45;;;0.80;;
38224;SDS011;24025;48.138;11.428;2023-04-03T15:30:00;3.55;;;0.80;;
38224;SDS011;24025;48.138;11.428;2023-04-03T15:32:32;1.67;;;0.68;;
38224;SDS011;24025;48.138;11.428;2023-04-03T15:35:05;2.60;;;0.95;;
38224;SDS011;24025;48.138;11.428;2023-04-03T15:37:36;1.15;;;0.77;;
38224;SDS011;24025;48.138;11.428;2023-04-03T15:40:08;1.52;;;0.80;;
38224;SDS011;24025;48.138;11.428;2023-04-03T15:42:42;1.45;;;0.70;;
38224;SDS011;24025;48.138;11.428;2023-04-03T15:45:13;1.48;;;0.70;;
38224;SDS011;24025;48.138;11.428;2023-04-03T15:47:45;2.25;;;0.93;;
38224;SDS011;24025;48.138;11.428;2023-04-03T15:50:17;6.07;;;0.60;;
38224;SDS011;24025;48.138;11.428;2023-04-03T15:52:48;2.50;;;1.00;;
38224;SDS011;24025;48.138;11.428;2023-04-03T15:55:25;2.95;;;0.63;;
38224;SDS011;24025;48.138;11.428;2023-04-03T15:57:59;1.48;;;0.75;;
38224;SDS011;24025;48.138;11.428;2023-04-03T16:00:31;2.38;;;0.77;;
38224;SDS011;24025;48.138;11.428;2023-04-03T16:03:11;0.90;;;0.50;;
38224;SDS011;24025;48.138;11.428;2023-04-03T16:08:18;1.38;;;0.70;;
38224;SDS011;24025;48.138;11.428;2023-04-03T16:10:50;2.50;;;0.70;;
38224;SDS011;24025;48.138;11.428;2023-04-03T16:13:21;3.00;;;0.98;;
38224;SDS011;24025;48.138;11.428;2023-04-03T16:15:55;0.90;;;0.63;;
38224;SDS011;24025;48.138;11.428;2023-04-03T16:18:28;2.25;;;1.02;;
38224;SDS011;24025;48.138;11.428;2023-04-03T16:21:00;1.88;;;0.80;;
38224;SDS011;24025;48.138;11.428;2023-04-03T16:23:32;5.10;;;0.70;;
38224;SDS011;24025;48.138;11.428;2023-04-03T16:26:03;1.15;;;0.93;;
38224;SDS011;24025;48.138;11.428;2023-04-03T16:28:35;1.08;;;0.70;;
38224;SDS011;24025;48.138;11.428;2023-04-03T16:31:07;1.52;;;0.70;;
38224;SDS011;24025;48.138;11.428;2023-04-03T16:33:39;2.08;;;0.85;;
38224;SDS011;24025;48.138;11.428;2023-04-03T16:36:12;4.35;;;0.90;;
38224;SDS011;24025;48.138;11.428;2023-04-03T16:38:46;1.70;;;0.68;;
38224;SDS011;24025;48.138;11.428;2023-04-03T16:41:17;1.40;;;0.60;;
38224;SDS011;24025;48.138;11.428;2023-04-03T16:43:50;1.75;;;0.90;;
38224;SDS011;24025;48.138;11.428;2023-04-03T16:46:22;2.55;;;0.80;;
38224;SDS011;24025;48.138;11.428;2023-04-03T16:48:53;1.77;;;0.95;;
38224;SDS011;24025;48.138;11.428;2023-04-03T16:51:25;2.45;;;0.65;;
38224;SDS011;24025;48.138;11.428;2023-04-03T16:56:28;2.67;;;0.80;;
38224;SDS011;24025;48.138;11.428;2023-04-03T16:59:00;1.23;;;0.70;;
38224;SDS011;24025;48.138;11.428;2023-04-03T17:01:31;2.50;;;0.63;;
38224;SDS011;24025;48.138;11.428;2023-04-03T17:06:34;1.95;;;0.57;;
38224;SDS011;24025;48.138;11.428;2023-04-03T17:09:06;1.42;;;0.90;;
38224;SDS011;24025;48.138;11.428;2023-04-03T17:11:40;3.67;;;0.70;;
38224;SDS011;24025;48.138;11.428;2023-04-03T17:14:17;3.88;;;0.75;;
38224;SDS011;24025;48.138;11.428;2023-04-03T17:16:49;2.92;;;1.20;;
38224;SDS011;24025;48.138;11.428;2023-04-03T17:21:55;2.78;;;0.88;;
38224;SDS011;24025;48.138;11.428;2023-04-03T17:32:02;1.95;;;0.88;;
38224;SDS011;24025;48.138;11.428;2023-04-03T17:34:33;2.15;;;0.95;;
38224;SDS011;24025;48.138;11.428;2023-04-03T17:37:06;3.22;;;0.88;;
38224;SDS011;24025;48.138;11.428;2023-04-03T17:39:39;4.57;;;1.13;;
38224;SDS011;24025;48.138;11.428;2023-04-03T17:42:11;3.92;;;1.13;;
38224;SDS011;24025;48.138;11.428;2023-04-03T17:44:43;1.45;;;0.90;;
38224;SDS011;24025;48.138;11.428;2023-04-03T17:47:14;2.17;;;1.00;;
38224;SDS011;24025;48.138;11.428;2023-04-03T17:49:46;1.10;;;0.43;;
38224;SDS011;24025;48.138;11.428;2023-04-03T17:52:18;1.88;;;0.98;;
38224;SDS011;24025;48.138;11.428;2023-04-03T17:54:54;2.67;;;1.17;;
38224;SDS011;24025;48.138;11.428;2023-04-03T17:59:57;1.60;;;0.95;;
38224;SDS011;24025;48.138;11.428;2023-04-03T18:02:29;3.08;;;1.25;;
38224;SDS011;24025;48.138;11.428;2023-04-03T18:05:03;2.50;;;1.10;;
38224;SDS011;24025;48.138;11.428;2023-04-03T18:07:36;3.90;;;1.60;;
38224;SDS011;24025;48.138;11.428;2023-04-03T18:10:09;4.97;;;1.38;;
38224;SDS011;24025;48.138;11.428;2023-04-03T18:15:16;4.78;;;1.40;;
38224;SDS011;24025;48.138;11.428;2023-04-03T18:22:53;4.25;;;0.90;;
38224;SDS011;24025;48.138;11.428;2023-04-03T18:25:26;1.98;;;0.98;;
38224;SDS011;24025;48.138;11.428;2023-04-03T18:27:58;3.78;;;1.40;;
38224;SDS011;24025;48.138;11.428;2023-04-03T18:30:36;4.40;;;1.13;;
38224;SDS011;24025;48.138;11.428;2023-04-03T18:33:08;2.40;;;1.42;;
38224;SDS011;24025;48.138;11.428;2023-04-03T18:35:39;1.98;;;1.20;;
38224;SDS011;24025;48.138;11.428;2023-04-03T18:38:11;2.88;;;1.08;;
38224;SDS011;24025;48.138;11.428;2023-04-03T18:40:44;2.83;;;1.25;;
38224;SDS011;24025;48.138;11.428;2023-04-03T18:43:17;2.30;;;1.20;;
38224;SDS011;24025;48.138;11.428;2023-04-03T18:45:50;2.40;;;1.38;;
38224;SDS011;24025;48.138;11.428;2023-04-03T18:48:22;3.97;;;1.13;;
38224;SDS011;24025;48.138;11.428;2023-04-03T18:53:26;4.10;;;1.23;;
38224;SDS011;24025;48.138;11.428;2023-04-03T18:55:58;6.63;;;1.05;;
38224;SDS011;24025;48.138;11.428;2023-04-03T19:01:01;1.75;;;0.93;;
38224;SDS011;24025;48.138;11.428;2023-04-03T19:03:33;3.67;;;1.15;;
38224;SDS011;24025;48.138;11.428;2023-04-03T19:06:07;1.55;;;0.77;;
38224;SDS011;24025;48.138;11.428;2023-04-03T19:08:38;4.45;;;1.13;;
38224;SDS011;24025;48.138;11.428;2023-04-03T19:11:11;5.13;;;1.20;;
38224;SDS011;24025;48.138;11.428;2023-04-03T19:13:42;1.60;;;0.80;;
38224;SDS011;24025;48.138;11.428;2023-04-03T19:16:27;8.82;;;3.28;;
38224;SDS011;24025;48.138;11.428;2023-04-03T19:18:59;4.53;;;1.20;;
38224;SDS011;24025;48.138;11.428;2023-04-03T19:21:31;1.75;;;1.02;;
38224;SDS011;24025;48.138;11.428;2023-04-03T19:24:11;3.92;;;1.13;;
38224;SDS011;24025;48.138;11.428;2023-04-03T19:26:43;2.75;;;0.70;;
38224;SDS011;24025;48.138;11.428;2023-04-03T19:29:16;6.05;;;1.45;;
38224;SDS011;24025;48.138;11.428;2023-04-03T19:31:48;3.13;;;0.90;;
38224;SDS011;24025;48.138;11.428;2023-04-03T19:34:19;3.00;;;1.27;;
38224;SDS011;24025;48.138;11.428;2023-04-03T19:41:54;2.65;;;0.82;;
38224;SDS011;24025;48.138;11.428;2023-04-03T19:44:26;1.50;;;1.10;;
38224;SDS011;24025;48.138;11.428;2023-04-03T19:46:58;5.10;;;0.95;;
38224;SDS011;24025;48.138;11.428;2023-04-03T19:49:30;3.20;;;1.25;;
38224;SDS011;24025;48.138;11.428;2023-04-03T19:52:02;6.82;;;1.25;;
38224;SDS011;24025;48.138;11.428;2023-04-03T19:54:34;2.55;;;0.93;;
38224;SDS011;24025;48.138;11.428;2023-04-03T19:57:05;1.98;;;0.88;;
38224;SDS011;24025;48.138;11.428;2023-04-03T19:59:39;1.73;;;1.00;;
38224;SDS011;24025;48.138;11.428;2023-04-03T20:02:10;4.22;;;1.02;;
38224;SDS011;24025;48.138;11.428;2023-04-03T20:04:42;2.05;;;1.10;;
38224;SDS011;24025;48.138;11.428;2023-04-03T20:07:14;1.83;;;0.90;;
38224;SDS011;24025;48.138;11.428;2023-04-03T20:09:46;2.22;;;0.93;;
38224;SDS011;24025;48.138;11.428;2023-04-03T20:12:17;1.70;;;1.17;;
38224;SDS011;24025;48.138;11.428;2023-04-03T20:14:51;3.08;;;1.10;;
38224;SDS011;24025;48.138;11.428;2023-04-03T20:17:23;3.75;;;1.30;;
38224;SDS011;24025;48.138;11.428;2023-04-03T20:19:54;2.03;;;1.07;;
38224;SDS011;24025;48.138;11.428;2023-04-03T20:22:33;4.72;;;1.15;;
38224;SDS011;24025;48.138;11.428;2023-04-03T20:25:10;5.47;;;1.40;;
38224;SDS011;24025;48.138;11.428;2023-04-03T20:27:47;4.15;;;1.02;;
38224;SDS011;24025;48.138;11.428;2023-04-03T20:30:19;5.00;;;1.10;;
38224;SDS011;24025;48.138;11.428;2023-04-03T20:32:51;2.63;;;1.42;;
38224;SDS011;24025;48.138;11.428;2023-04-03T20:35:23;2.17;;;1.08;;
38224;SDS011;24025;48.138;11.428;2023-04-03T20:37:56;3.25;;;1.27;;
38224;SDS011;24025;48.138;11.428;2023-04-03T20:40:28;7.13;;;1.60;;
38224;SDS011;24025;48.138;11.428;2023-04-03T20:43:00;3.08;;;1.10;;
38224;SDS011;24025;48.138;11.428;2023-04-03T20:45:35;2.60;;;1.02;;
38224;SDS011;24025;48.138;11.428;2023-04-03T20:48:06;5.20;;;1.20;;
38224;SDS011;24025;48.138;11.428;2023-04-03T20:53:12;3.97;;;1.17;;
38224;SDS011;24025;48.138;11.428;2023-04-03T20:55:55;5.22;;;1.00;;
38224;SDS011;24025;48.138;11.428;2023-04-03T20:58:31;5.22;;;1.30;;
38224;SDS011;24025;48.138;11.428;2023-04-03T21:01:12;3.83;;;1.20;;
38224;SDS011;24025;48.138;11.428;2023-04-03T21:03:49;2.05;;;1.17;;
38224;SDS011;24025;48.138;11.428;2023-04-03T21:21:02;5.45;;;1.40;;
38224;SDS011;24025;48.138;11.428;2023-04-03T21:26:06;2.43;;;0.80;;
38224;SDS011;24025;48.138;11.428;2023-04-03T21:31:09;1.25;;;0.55;;
38224;SDS011;24025;48.138;11.428;2023-04-03T21:33:45;2.15;;;1.00;;
38224;SDS011;24025;48.138;11.428;2023-04-03T21:36:17;2.67;;;1.08;;
38224;SDS011;24025;48.138;11.428;2023-04-03T21:38:48;1.77;;;1.40;;
38224;SDS011;24025;48.138;11.428;2023-04-03T21:41:20;2.40;;;1.10;;
38224;SDS011;24025;48.138;11.428;2023-04-03T21:43:52;3.05;;;1.58;;
38224;SDS011;24025;48.138;11.428;2023-04-03T21:46:26;3.30;;;1.20;;
38224;SDS011;24025;48.138;11.428;2023-04-03T21:51:32;3.35;;;1.00;;
38224;SDS011;24025;48.138;11.428;2023-04-03T21:54:05;3.53;;;1.75;;
38224;SDS011;24025;48.138;11.428;2023-04-03T21:59:09;2.63;;;0.90;;
38224;SDS011;24025;48.138;11.428;2023-04-03T22:01:41;2.83;;;1.08;;
38224;SDS011;24025;48.138;11.428;2023-04-03T22:04:13;2.13;;;1.23;;
38224;SDS011;24025;48.138;11.428;2023-04-03T22:11:49;1.48;;;0.90;;
38224;SDS011;24025;48.138;11.428;2023-04-03T22:14:21;2.95;;;1.02;;
38224;SDS011;24025;48.138;11.428;2023-04-03T22:16:53;6.03;;;0.93;;
38224;SDS011;24025;48.138;11.428;2023-04-03T22:19:25;2.55;;;1.25;;
38224;SDS011;24025;48.138;11.428;2023-04-03T22:21:57;2.67;;;1.00;;
38224;SDS011;24025;48.138;11.428;2023-04-03T22:24:28;3.75;;;1.13;;
38224;SDS011;24025;48.138;11.428;2023-04-03T22:27:00;4.10;;;1.27;;
38224;SDS011;24025;48.138;11.428;2023-04-03T22:29:32;3.47;;;1.15;;
38224;SDS011;24025;48.138;11.428;2023-04-03T22:32:04;4.17;;;1.43;;
38224;SDS011;24025;48.138;11.428;2023-04-03T22:34:36;2.00;;;0.63;;
38224;SDS011;24025;48.138;11.428;2023-04-03T22:37:08;3.03;;;1.33;;
38224;SDS011;24025;48.138;11.428;2023-04-03T22:39:39;4.13;;;0.93;;
38224;SDS011;24025;48.138;11.428;2023-04-03T22:42:11;3.60;;;1.70;;
38224;SDS011;24025;48.138;11.428;2023-04-03T22:44:42;8.13;;;4.23;;
38224;SDS011;24025;48.138;11.428;2023-04-03T22:47:14;7.60;;;3.27;;
38224;SDS011;24025;48.138;11.428;2023-04-03T22:49:45;8.90;;;1.97;;
38224;SDS011;24025;48.138;11.428;2023-04-03T22:52:17;2.95;;;1.52;;
38224;SDS011;24025;48.138;11.428;2023-04-03T22:54:49;5.00;;;1.17;;
38224;SDS011;24025;48.138;11.428;2023-04-03T22:57:21;3.87;;;2.07;;
38224;SDS011;24025;48.138;11.428;2023-04-03T22:59:52;4.00;;;1.50;;
38224;SDS011;24025;48.138;11.428;2023-04-03T23:02:24;2.60;;;1.07;;
38224;SDS011;24025;48.138;11.428;2023-04-03T23:04:56;5.43;;;1.52;;
38224;SDS011;24025;48.138;11.428;2023-04-03T23:07:28;1.90;;;1.10;;
38224;SDS011;24025;48.138;11.428;2023-04-03T23:09:59;4.17;;;2.13;;
38224;SDS011;24025;48.138;11.428;2023-04-03T23:12:35;5.70;;;1.50;;
38224;SDS011;24025;48.138;11.428;2023-04-03T23:15:10;2.45;;;1.40;;
38224;SDS011;24025;48.138;11.428;2023-04-03T23:17:45;4.45;;;1.52;;
38224;SDS011;24025;48.138;11.428;2023-04-03T23:20:19;6.22;;;1.48;;
38224;SDS011;24025;48.138;11.428;2023-04-03T23:22:51;3.92;;;1.13;;
38224;SDS011;24025;48.138;11.428;2023-04-03T23:25:23;4.70;;;1.20;;
38224;SDS011;24025;48.138;11.428;2023-04-03T23:27:54;2.20;;;0.98;;
38224;SDS011;24025;48.138;11.428;2023-04-03T23:30:26;4.60;;;1.47;;
38224;SDS011;24025;48.138;11.428;2023-04-03T23:32:58;5.90;;;1.75;;
38224;SDS011;24025;48.138;11.428;2023-04-03T23:35:29;3.80;;;1.45;;
38224;SDS011;24025;48.138;11.428;2023-04-03T23:38:01;2.17;;;1.25;;
38224;SDS011;24025;48.138;11.428;2023-04-03T23:45:57;4.50;;;1.23;;
38224;SDS011;24025;48.138;11.428;2023-04-03T23:48:29;4.32;;;1.20;;
38224;SDS011;24025;48.138;11.428;2023-04-03T23:51:01;3.88;;;1.52;;
38224;SDS011;24025;48.138;11.428;2023-04-03T23:53:33;4.15;;;1.60;;
38224;SDS011;24025;48.138;11.428;2023-04-03T23:56:05;4.20;;;1.88;;
38224;SDS011;24025;48.138;11.428;2023-04-03T23:58:41;4.93;;;1.10;;
